sensor_id;sensor_type;location;lat;lon;timestamp;P1;durP1;ratioP1;P2;durP2;ratioP2
29732;SDS011;16643;43.158;25.302;2023-05-10T00:00:37;12.80;;;8.82;;
29732;SDS011;16643;43.158;25.302;2023-05-10T00:03:02;13.82;;;9.73;;
29732;SDS011;16643;43.158;25.302;2023-05-10T00:05:30;12.57;;;9.07;;
29732;SDS011;16643;43.158;25.302;2023-05-10T00:07:56;13.82;;;9.00;;
29732;SDS011;16643;43.158;25.302;2023-05-10T00:10:22;19.52;;;9.27;;
29732;SDS011;16643;43.158;25.302;2023-05-10T00:12:47;15.95;;;8.75;;
29732;SDS011;16643;43.158;25.302;2023-05-10T00:15:13;17.63;;;8.90;;
29732;SDS011;16643;43.158;25.302;2023-05-10T00:17:39;13.93;;;9.70;;
29732;SDS011;16643;43.158;25.302;2023-05-10T00:20:05;14.77;;;8.40;;
29732;SDS011;16643;43.158;25.302;2023-05-10T00:22:31;15.77;;;9.55;;
29732;SDS011;16643;43.158;25.302;2023-05-10T00:24:58;13.32;;;8.52;;
29732;SDS011;16643;43.158;25.302;2023-05-10T00:27:24;12.55;;;9.10;;
29732;SDS011;16643;43.158;25.302;2023-05-10T00:29:49;13.00;;;8.05;;
29732;SDS011;16643;43.158;25.302;2023-05-10T00:32:15;12.88;;;8.77;;
29732;SDS011;16643;43.158;25.302;2023-05-10T00:34:41;17.30;;;9.52;;
29732;SDS011;16643;43.158;25.302;2023-05-10T00:37:07;17.13;;;8.77;;
29732;SDS011;16643;43.158;25.302;2023-05-10T00:39:34;13.20;;;8.52;;
29732;SDS011;16643;43.158;25.302;2023-05-10T00:41:59;10.93;;;8.32;;
29732;SDS011;16643;43.158;25.302;2023-05-10T00:44:25;9.85;;;7.32;;
29732;SDS011;16643;43.158;25.302;2023-05-10T00:46:51;13.57;;;7.68;;
29732;SDS011;16643;43.158;25.302;2023-05-10T00:49:17;17.33;;;6.90;;
29732;SDS011;16643;43.158;25.302;2023-05-10T00:51:43;12.20;;;7.50;;
29732;SDS011;16643;43.158;25.302;2023-05-10T00:54:13;18.58;;;7.82;;
29732;SDS011;16643;43.158;25.302;2023-05-10T00:56:41;14.07;;;6.35;;
29732;SDS011;16643;43.158;25.302;2023-05-10T00:59:09;11.60;;;7.32;;
29732;SDS011;16643;43.158;25.302;2023-05-10T01:01:35;11.02;;;6.93;;
29732;SDS011;16643;43.158;25.302;2023-05-10T01:04:01;10.80;;;6.60;;
29732;SDS011;16643;43.158;25.302;2023-05-10T01:06:29;13.80;;;7.80;;
29732;SDS011;16643;43.158;25.302;2023-05-10T01:08:58;16.30;;;7.03;;
29732;SDS011;16643;43.158;25.302;2023-05-10T01:11:24;15.88;;;9.20;;
29732;SDS011;16643;43.158;25.302;2023-05-10T01:13:52;20.98;;;9.73;;
29732;SDS011;16643;43.158;25.302;2023-05-10T01:16:22;13.65;;;8.35;;
29732;SDS011;16643;43.158;25.302;2023-05-10T01:18:48;12.45;;;8.43;;
29732;SDS011;16643;43.158;25.302;2023-05-10T01:21:49;14.00;;;7.78;;
29732;SDS011;16643;43.158;25.302;2023-05-10T01:24:38;14.57;;;8.70;;
29732;SDS011;16643;43.158;25.302;2023-05-10T01:27:19;12.13;;;6.95;;
29732;SDS011;16643;43.158;25.302;2023-05-10T01:32:43;15.50;;;6.90;;
29732;SDS011;16643;43.158;25.302;2023-05-10T01:35:23;10.48;;;6.07;;
29732;SDS011;16643;43.158;25.302;2023-05-10T01:41:01;10.68;;;5.93;;
29732;SDS011;16643;43.158;25.302;2023-05-10T01:43:34;11.10;;;6.47;;
29732;SDS011;16643;43.158;25.302;2023-05-10T01:46:24;10.00;;;6.13;;
29732;SDS011;16643;43.158;25.302;2023-05-10T01:48:57;13.82;;;7.00;;
29732;SDS011;16643;43.158;25.302;2023-05-10T01:51:24;7.93;;;5.57;;
29732;SDS011;16643;43.158;25.302;2023-05-10T01:53:56;9.38;;;5.15;;
29732;SDS011;16643;43.158;25.302;2023-05-10T01:56:26;9.90;;;5.32;;
29732;SDS011;16643;43.158;25.302;2023-05-10T01:58:55;11.13;;;6.35;;
29732;SDS011;16643;43.158;25.302;2023-05-10T02:01:22;14.23;;;6.03;;
29732;SDS011;16643;43.158;25.302;2023-05-10T02:03:51;10.20;;;6.28;;
29732;SDS011;16643;43.158;25.302;2023-05-10T02:06:20;13.98;;;5.50;;
29732;SDS011;16643;43.158;25.302;2023-05-10T02:08:49;11.77;;;6.72;;
29732;SDS011;16643;43.158;25.302;2023-05-10T02:11:18;12.93;;;6.38;;
29732;SDS011;16643;43.158;25.302;2023-05-10T02:13:50;9.57;;;6.15;;
29732;SDS011;16643;43.158;25.302;2023-05-10T02:16:18;10.23;;;6.20;;
29732;SDS011;16643;43.158;25.302;2023-05-10T02:18:48;12.88;;;6.13;;
29732;SDS011;16643;43.158;25.302;2023-05-10T02:21:20;9.32;;;5.72;;
29732;SDS011;16643;43.158;25.302;2023-05-10T02:23:48;15.23;;;5.73;;
29732;SDS011;16643;43.158;25.302;2023-05-10T02:26:20;11.57;;;6.35;;
29732;SDS011;16643;43.158;25.302;2023-05-10T02:28:47;9.13;;;6.00;;
29732;SDS011;16643;43.158;25.302;2023-05-10T02:31:14;10.80;;;6.00;;
29732;SDS011;16643;43.158;25.302;2023-05-10T02:33:43;15.05;;;7.20;;
29732;SDS011;16643;43.158;25.302;2023-05-10T02:36:13;12.65;;;6.75;;
29732;SDS011;16643;43.158;25.302;2023-05-10T02:38:45;13.85;;;6.28;;
29732;SDS011;16643;43.158;25.302;2023-05-10T02:41:12;10.82;;;7.25;;
29732;SDS011;16643;43.158;25.302;2023-05-10T02:43:49;11.15;;;8.02;;
29732;SDS011;16643;43.158;25.302;2023-05-10T02:46:18;12.55;;;7.57;;
29732;SDS011;16643;43.158;25.302;2023-05-10T02:48:44;15.35;;;8.70;;
29732;SDS011;16643;43.158;25.302;2023-05-10T02:51:10;14.27;;;8.40;;
29732;SDS011;16643;43.158;25.302;2023-05-10T02:53:40;13.07;;;7.80;;
29732;SDS011;16643;43.158;25.302;2023-05-10T02:56:21;10.90;;;6.95;;
29732;SDS011;16643;43.158;25.302;2023-05-10T02:58:53;12.45;;;7.18;;
29732;SDS011;16643;43.158;25.302;2023-05-10T03:01:18;10.27;;;7.30;;
29732;SDS011;16643;43.158;25.302;2023-05-10T03:03:44;9.13;;;5.45;;
29732;SDS011;16643;43.158;25.302;2023-05-10T03:06:14;13.77;;;7.40;;
29732;SDS011;16643;43.158;25.302;2023-05-10T03:08:43;14.25;;;6.40;;
29732;SDS011;16643;43.158;25.302;2023-05-10T03:16:52;12.18;;;7.13;;
29732;SDS011;16643;43.158;25.302;2023-05-10T03:22:26;10.15;;;6.63;;
29732;SDS011;16643;43.158;25.302;2023-05-10T03:25:06;15.93;;;7.03;;
29732;SDS011;16643;43.158;25.302;2023-05-10T03:27:36;21.45;;;6.90;;
29732;SDS011;16643;43.158;25.302;2023-05-10T03:30:10;9.52;;;6.45;;
29732;SDS011;16643;43.158;25.302;2023-05-10T03:32:37;10.23;;;6.05;;
29732;SDS011;16643;43.158;25.302;2023-05-10T03:35:10;11.50;;;6.20;;
29732;SDS011;16643;43.158;25.302;2023-05-10T03:37:46;13.38;;;7.65;;
29732;SDS011;16643;43.158;25.302;2023-05-10T03:40:12;11.63;;;7.15;;
29732;SDS011;16643;43.158;25.302;2023-05-10T03:42:38;16.38;;;7.55;;
29732;SDS011;16643;43.158;25.302;2023-05-10T03:45:03;13.73;;;6.88;;
29732;SDS011;16643;43.158;25.302;2023-05-10T03:47:31;15.52;;;5.75;;
29732;SDS011;16643;43.158;25.302;2023-05-10T03:49:57;13.35;;;5.93;;
29732;SDS011;16643;43.158;25.302;2023-05-10T03:52:28;13.23;;;6.70;;
29732;SDS011;16643;43.158;25.302;2023-05-10T03:54:54;13.07;;;6.65;;
29732;SDS011;16643;43.158;25.302;2023-05-10T03:57:22;10.95;;;7.07;;
29732;SDS011;16643;43.158;25.302;2023-05-10T03:59:49;13.85;;;7.25;;
29732;SDS011;16643;43.158;25.302;2023-05-10T04:02:15;10.98;;;5.93;;
29732;SDS011;16643;43.158;25.302;2023-05-10T04:04:45;9.27;;;6.43;;
29732;SDS011;16643;43.158;25.302;2023-05-10T04:07:18;10.55;;;6.47;;
29732;SDS011;16643;43.158;25.302;2023-05-10T04:09:54;11.82;;;6.28;;
29732;SDS011;16643;43.158;25.302;2023-05-10T04:12:19;11.93;;;6.50;;
29732;SDS011;16643;43.158;25.302;2023-05-10T04:14:45;10.70;;;5.80;;
29732;SDS011;16643;43.158;25.302;2023-05-10T04:17:11;15.23;;;6.38;;
29732;SDS011;16643;43.158;25.302;2023-05-10T04:19:37;13.70;;;6.15;;
29732;SDS011;16643;43.158;25.302;2023-05-10T04:22:02;9.40;;;6.00;;
29732;SDS011;16643;43.158;25.302;2023-05-10T04:24:28;11.63;;;6.45;;
29732;SDS011;16643;43.158;25.302;2023-05-10T04:26:54;10.30;;;6.13;;
29732;SDS011;16643;43.158;25.302;2023-05-10T04:29:21;11.88;;;6.40;;
29732;SDS011;16643;43.158;25.302;2023-05-10T04:31:52;14.95;;;9.98;;
29732;SDS011;16643;43.158;25.302;2023-05-10T04:34:20;12.95;;;7.32;;
29732;SDS011;16643;43.158;25.302;2023-05-10T04:36:46;12.30;;;7.13;;
29732;SDS011;16643;43.158;25.302;2023-05-10T04:39:14;9.10;;;4.70;;
29732;SDS011;16643;43.158;25.302;2023-05-10T04:41:44;8.55;;;5.22;;
29732;SDS011;16643;43.158;25.302;2023-05-10T04:44:11;10.80;;;6.10;;
29732;SDS011;16643;43.158;25.302;2023-05-10T04:46:37;9.85;;;4.50;;
29732;SDS011;16643;43.158;25.302;2023-05-10T04:49:06;11.40;;;5.95;;
29732;SDS011;16643;43.158;25.302;2023-05-10T04:51:36;10.68;;;6.03;;
29732;SDS011;16643;43.158;25.302;2023-05-10T04:54:05;10.45;;;4.95;;
29732;SDS011;16643;43.158;25.302;2023-05-10T04:56:31;8.02;;;4.20;;
29732;SDS011;16643;43.158;25.302;2023-05-10T04:58:57;8.05;;;4.97;;
29732;SDS011;16643;43.158;25.302;2023-05-10T05:01:22;8.50;;;4.50;;
29732;SDS011;16643;43.158;25.302;2023-05-10T05:03:52;7.45;;;4.47;;
29732;SDS011;16643;43.158;25.302;2023-05-10T05:06:18;9.77;;;4.90;;
29732;SDS011;16643;43.158;25.302;2023-05-10T05:08:44;8.38;;;4.50;;
29732;SDS011;16643;43.158;25.302;2023-05-10T05:11:09;9.43;;;4.20;;
29732;SDS011;16643;43.158;25.302;2023-05-10T05:13:35;7.75;;;4.70;;
29732;SDS011;16643;43.158;25.302;2023-05-10T05:16:02;8.18;;;4.78;;
29732;SDS011;16643;43.158;25.302;2023-05-10T05:18:30;6.60;;;4.22;;
29732;SDS011;16643;43.158;25.302;2023-05-10T05:20:56;10.30;;;4.18;;
29732;SDS011;16643;43.158;25.302;2023-05-10T05:23:21;7.32;;;4.10;;
29732;SDS011;16643;43.158;25.302;2023-05-10T05:25:52;8.40;;;4.28;;
29732;SDS011;16643;43.158;25.302;2023-05-10T05:28:25;7.18;;;4.18;;
29732;SDS011;16643;43.158;25.302;2023-05-10T05:30:55;8.90;;;4.63;;
29732;SDS011;16643;43.158;25.302;2023-05-10T05:33:20;7.75;;;5.75;;
29732;SDS011;16643;43.158;25.302;2023-05-10T05:35:46;7.30;;;4.72;;
29732;SDS011;16643;43.158;25.302;2023-05-10T05:38:16;6.72;;;4.50;;
29732;SDS011;16643;43.158;25.302;2023-05-10T05:40:42;8.55;;;4.93;;
29732;SDS011;16643;43.158;25.302;2023-05-10T05:43:08;6.82;;;5.10;;
29732;SDS011;16643;43.158;25.302;2023-05-10T05:45:48;7.60;;;5.15;;
29732;SDS011;16643;43.158;25.302;2023-05-10T05:48:13;8.98;;;5.03;;
29732;SDS011;16643;43.158;25.302;2023-05-10T05:50:39;6.60;;;4.70;;
29732;SDS011;16643;43.158;25.302;2023-05-10T05:53:05;6.85;;;4.55;;
29732;SDS011;16643;43.158;25.302;2023-05-10T05:55:31;10.60;;;5.20;;
29732;SDS011;16643;43.158;25.302;2023-05-10T05:57:59;8.48;;;4.90;;
29732;SDS011;16643;43.158;25.302;2023-05-10T06:00:37;7.72;;;4.75;;
29732;SDS011;16643;43.158;25.302;2023-05-10T06:03:04;13.68;;;6.22;;
29732;SDS011;16643;43.158;25.302;2023-05-10T06:05:29;15.75;;;5.53;;
29732;SDS011;16643;43.158;25.302;2023-05-10T06:07:55;8.75;;;5.32;;
29732;SDS011;16643;43.158;25.302;2023-05-10T06:10:22;14.07;;;5.00;;
29732;SDS011;16643;43.158;25.302;2023-05-10T06:12:47;12.43;;;5.00;;
29732;SDS011;16643;43.158;25.302;2023-05-10T06:15:14;8.57;;;5.13;;
29732;SDS011;16643;43.158;25.302;2023-05-10T06:17:43;9.05;;;5.00;;
29732;SDS011;16643;43.158;25.302;2023-05-10T06:20:09;7.10;;;4.47;;
29732;SDS011;16643;43.158;25.302;2023-05-10T06:22:37;10.25;;;5.50;;
29732;SDS011;16643;43.158;25.302;2023-05-10T06:25:02;10.25;;;5.50;;
29732;SDS011;16643;43.158;25.302;2023-05-10T06:27:28;8.15;;;5.68;;
29732;SDS011;16643;43.158;25.302;2023-05-10T06:29:54;12.10;;;6.25;;
29732;SDS011;16643;43.158;25.302;2023-05-10T06:32:21;8.65;;;5.03;;
29732;SDS011;16643;43.158;25.302;2023-05-10T06:34:46;8.95;;;5.43;;
29732;SDS011;16643;43.158;25.302;2023-05-10T06:37:12;9.73;;;5.63;;
29732;SDS011;16643;43.158;25.302;2023-05-10T06:39:37;7.20;;;4.90;;
29732;SDS011;16643;43.158;25.302;2023-05-10T06:42:03;9.30;;;5.68;;
29732;SDS011;16643;43.158;25.302;2023-05-10T06:44:29;10.10;;;5.35;;
29732;SDS011;16643;43.158;25.302;2023-05-10T06:46:55;9.40;;;4.85;;
29732;SDS011;16643;43.158;25.302;2023-05-10T06:49:21;9.88;;;5.22;;
29732;SDS011;16643;43.158;25.302;2023-05-10T06:51:47;10.35;;;4.80;;
29732;SDS011;16643;43.158;25.302;2023-05-10T06:54:13;7.43;;;4.43;;
29732;SDS011;16643;43.158;25.302;2023-05-10T06:56:39;7.00;;;4.72;;
29732;SDS011;16643;43.158;25.302;2023-05-10T06:59:04;8.13;;;4.38;;
29732;SDS011;16643;43.158;25.302;2023-05-10T07:01:30;7.80;;;4.22;;
29732;SDS011;16643;43.158;25.302;2023-05-10T07:03:56;7.28;;;5.10;;
29732;SDS011;16643;43.158;25.302;2023-05-10T07:06:21;10.23;;;4.97;;
29732;SDS011;16643;43.158;25.302;2023-05-10T07:08:47;9.60;;;4.28;;
29732;SDS011;16643;43.158;25.302;2023-05-10T07:11:12;5.85;;;3.58;;
29732;SDS011;16643;43.158;25.302;2023-05-10T07:13:38;8.40;;;4.55;;
29732;SDS011;16643;43.158;25.302;2023-05-10T07:16:06;7.72;;;4.10;;
29732;SDS011;16643;43.158;25.302;2023-05-10T07:18:33;7.45;;;4.47;;
29732;SDS011;16643;43.158;25.302;2023-05-10T07:20:59;9.93;;;4.32;;
29732;SDS011;16643;43.158;25.302;2023-05-10T07:23:24;6.10;;;3.70;;
29732;SDS011;16643;43.158;25.302;2023-05-10T07:25:50;7.63;;;3.80;;
29732;SDS011;16643;43.158;25.302;2023-05-10T07:28:17;6.80;;;3.72;;
29732;SDS011;16643;43.158;25.302;2023-05-10T07:30:43;7.05;;;3.80;;
29732;SDS011;16643;43.158;25.302;2023-05-10T07:33:10;5.13;;;2.65;;
29732;SDS011;16643;43.158;25.302;2023-05-10T07:38:03;6.72;;;3.80;;
29732;SDS011;16643;43.158;25.302;2023-05-10T07:40:29;10.45;;;3.78;;
29732;SDS011;16643;43.158;25.302;2023-05-10T07:42:55;15.00;;;3.92;;
29732;SDS011;16643;43.158;25.302;2023-05-10T07:45:21;6.68;;;3.13;;
29732;SDS011;16643;43.158;25.302;2023-05-10T07:47:47;6.10;;;3.65;;
29732;SDS011;16643;43.158;25.302;2023-05-10T07:50:12;6.15;;;3.08;;
29732;SDS011;16643;43.158;25.302;2023-05-10T07:52:38;6.20;;;2.97;;
29732;SDS011;16643;43.158;25.302;2023-05-10T07:55:04;5.28;;;3.55;;
29732;SDS011;16643;43.158;25.302;2023-05-10T07:57:30;7.38;;;3.75;;
29732;SDS011;16643;43.158;25.302;2023-05-10T07:59:56;7.20;;;3.22;;
29732;SDS011;16643;43.158;25.302;2023-05-10T08:02:21;5.25;;;3.55;;
29732;SDS011;16643;43.158;25.302;2023-05-10T08:04:47;7.82;;;3.63;;
29732;SDS011;16643;43.158;25.302;2023-05-10T08:07:13;6.20;;;3.47;;
29732;SDS011;16643;43.158;25.302;2023-05-10T08:09:40;5.53;;;3.35;;
29732;SDS011;16643;43.158;25.302;2023-05-10T08:12:05;5.85;;;3.55;;
29732;SDS011;16643;43.158;25.302;2023-05-10T08:14:31;5.32;;;3.30;;
29732;SDS011;16643;43.158;25.302;2023-05-10T08:16:57;9.43;;;3.75;;
29732;SDS011;16643;43.158;25.302;2023-05-10T08:19:22;5.38;;;3.58;;
29732;SDS011;16643;43.158;25.302;2023-05-10T08:21:49;7.45;;;3.47;;
29732;SDS011;16643;43.158;25.302;2023-05-10T08:24:14;8.77;;;3.50;;
29732;SDS011;16643;43.158;25.302;2023-05-10T08:26:40;6.95;;;3.22;;
29732;SDS011;16643;43.158;25.302;2023-05-10T08:29:06;5.32;;;3.55;;
29732;SDS011;16643;43.158;25.302;2023-05-10T08:31:31;7.43;;;4.35;;
29732;SDS011;16643;43.158;25.302;2023-05-10T08:33:57;6.00;;;3.42;;
29732;SDS011;16643;43.158;25.302;2023-05-10T08:36:22;6.43;;;4.05;;
29732;SDS011;16643;43.158;25.302;2023-05-10T08:38:52;5.65;;;3.30;;
29732;SDS011;16643;43.158;25.302;2023-05-10T08:41:19;5.28;;;3.65;;
29732;SDS011;16643;43.158;25.302;2023-05-10T08:43:46;6.38;;;3.28;;
29732;SDS011;16643;43.158;25.302;2023-05-10T08:46:16;7.05;;;3.20;;
29732;SDS011;16643;43.158;25.302;2023-05-10T08:48:44;4.72;;;3.20;;
29732;SDS011;16643;43.158;25.302;2023-05-10T08:51:11;7.20;;;2.95;;
29732;SDS011;16643;43.158;25.302;2023-05-10T08:53:39;5.47;;;3.20;;
29732;SDS011;16643;43.158;25.302;2023-05-10T08:56:05;6.30;;;3.03;;
29732;SDS011;16643;43.158;25.302;2023-05-10T08:58:31;4.18;;;2.90;;
29732;SDS011;16643;43.158;25.302;2023-05-10T09:00:57;5.05;;;3.22;;
29732;SDS011;16643;43.158;25.302;2023-05-10T09:03:24;5.07;;;3.60;;
29732;SDS011;16643;43.158;25.302;2023-05-10T09:05:50;5.57;;;2.80;;
29732;SDS011;16643;43.158;25.302;2023-05-10T09:08:16;4.18;;;2.67;;
29732;SDS011;16643;43.158;25.302;2023-05-10T09:10:45;4.47;;;2.92;;
29732;SDS011;16643;43.158;25.302;2023-05-10T09:13:13;4.90;;;2.97;;
29732;SDS011;16643;43.158;25.302;2023-05-10T09:15:40;4.43;;;3.10;;
29732;SDS011;16643;43.158;25.302;2023-05-10T09:18:06;4.80;;;2.50;;
29732;SDS011;16643;43.158;25.302;2023-05-10T09:20:32;5.95;;;3.38;;
29732;SDS011;16643;43.158;25.302;2023-05-10T09:22:58;4.20;;;2.72;;
29732;SDS011;16643;43.158;25.302;2023-05-10T09:25:23;5.93;;;2.53;;
29732;SDS011;16643;43.158;25.302;2023-05-10T09:27:49;5.68;;;3.45;;
29732;SDS011;16643;43.158;25.302;2023-05-10T09:30:25;5.18;;;2.75;;
29732;SDS011;16643;43.158;25.302;2023-05-10T09:32:55;7.20;;;3.47;;
29732;SDS011;16643;43.158;25.302;2023-05-10T09:35:22;4.28;;;2.80;;
29732;SDS011;16643;43.158;25.302;2023-05-10T09:37:50;5.13;;;2.47;;
29732;SDS011;16643;43.158;25.302;2023-05-10T09:40:26;3.47;;;2.53;;
29732;SDS011;16643;43.158;25.302;2023-05-10T09:43:08;5.47;;;3.65;;
29732;SDS011;16643;43.158;25.302;2023-05-10T09:45:35;3.95;;;2.88;;
29732;SDS011;16643;43.158;25.302;2023-05-10T09:48:02;4.45;;;2.80;;
29732;SDS011;16643;43.158;25.302;2023-05-10T09:50:29;5.22;;;2.88;;
29732;SDS011;16643;43.158;25.302;2023-05-10T09:52:56;6.15;;;3.00;;
29732;SDS011;16643;43.158;25.302;2023-05-10T09:55:38;6.20;;;3.60;;
29732;SDS011;16643;43.158;25.302;2023-05-10T09:58:11;3.83;;;2.50;;
29732;SDS011;16643;43.158;25.302;2023-05-10T10:00:40;8.20;;;3.88;;
29732;SDS011;16643;43.158;25.302;2023-05-10T10:03:19;8.43;;;3.58;;
29732;SDS011;16643;43.158;25.302;2023-05-10T10:05:46;5.57;;;3.40;;
29732;SDS011;16643;43.158;25.302;2023-05-10T10:08:13;5.15;;;3.00;;
29732;SDS011;16643;43.158;25.302;2023-05-10T10:10:40;3.58;;;2.83;;
29732;SDS011;16643;43.158;25.302;2023-05-10T10:13:06;4.45;;;3.17;;
29732;SDS011;16643;43.158;25.302;2023-05-10T10:15:33;4.13;;;3.00;;
29732;SDS011;16643;43.158;25.302;2023-05-10T10:18:00;3.70;;;2.70;;
29732;SDS011;16643;43.158;25.302;2023-05-10T10:20:26;6.10;;;3.60;;
29732;SDS011;16643;43.158;25.302;2023-05-10T10:22:53;4.90;;;2.70;;
29732;SDS011;16643;43.158;25.302;2023-05-10T10:25:19;4.53;;;2.80;;
29732;SDS011;16643;43.158;25.302;2023-05-10T10:35:53;3.80;;;2.25;;
29732;SDS011;16643;43.158;25.302;2023-05-10T10:38:20;5.03;;;2.70;;
29732;SDS011;16643;43.158;25.302;2023-05-10T10:40:47;3.65;;;2.78;;
29732;SDS011;16643;43.158;25.302;2023-05-10T10:48:50;7.10;;;3.25;;
29732;SDS011;16643;43.158;25.302;2023-05-10T10:51:37;4.45;;;2.50;;
29732;SDS011;16643;43.158;25.302;2023-05-10T10:54:11;3.88;;;2.90;;
29732;SDS011;16643;43.158;25.302;2023-05-10T10:56:37;4.82;;;2.83;;
29732;SDS011;16643;43.158;25.302;2023-05-10T10:59:03;4.35;;;2.63;;
29732;SDS011;16643;43.158;25.302;2023-05-10T11:01:35;3.95;;;2.75;;
29732;SDS011;16643;43.158;25.302;2023-05-10T11:06:33;4.35;;;2.97;;
29732;SDS011;16643;43.158;25.302;2023-05-10T11:09:09;5.00;;;2.65;;
29732;SDS011;16643;43.158;25.302;2023-05-10T11:11:52;4.90;;;2.92;;
29732;SDS011;16643;43.158;25.302;2023-05-10T11:14:23;4.13;;;2.45;;
29732;SDS011;16643;43.158;25.302;2023-05-10T11:16:49;3.83;;;2.88;;
29732;SDS011;16643;43.158;25.302;2023-05-10T11:19:15;3.78;;;2.72;;
29732;SDS011;16643;43.158;25.302;2023-05-10T11:21:46;4.00;;;2.50;;
29732;SDS011;16643;43.158;25.302;2023-05-10T11:24:14;4.30;;;2.80;;
29732;SDS011;16643;43.158;25.302;2023-05-10T11:26:52;4.22;;;2.78;;
29732;SDS011;16643;43.158;25.302;2023-05-10T11:29:18;7.03;;;2.95;;
29732;SDS011;16643;43.158;25.302;2023-05-10T11:31:45;4.05;;;2.85;;
29732;SDS011;16643;43.158;25.302;2023-05-10T11:34:22;5.57;;;3.40;;
29732;SDS011;16643;43.158;25.302;2023-05-10T11:37:00;5.03;;;2.63;;
29732;SDS011;16643;43.158;25.302;2023-05-10T11:39:30;3.53;;;2.90;;
29732;SDS011;16643;43.158;25.302;2023-05-10T11:41:57;5.60;;;2.95;;
29732;SDS011;16643;43.158;25.302;2023-05-10T11:44:23;6.05;;;2.85;;
29732;SDS011;16643;43.158;25.302;2023-05-10T11:46:54;5.05;;;2.63;;
29732;SDS011;16643;43.158;25.302;2023-05-10T11:49:23;3.25;;;2.25;;
29732;SDS011;16643;43.158;25.302;2023-05-10T11:51:51;5.72;;;2.85;;
29732;SDS011;16643;43.158;25.302;2023-05-10T11:54:16;7.85;;;2.67;;
29732;SDS011;16643;43.158;25.302;2023-05-10T11:56:42;3.63;;;2.55;;
29732;SDS011;16643;43.158;25.302;2023-05-10T11:59:08;5.50;;;2.92;;
29732;SDS011;16643;43.158;25.302;2023-05-10T12:01:33;4.75;;;2.70;;
29732;SDS011;16643;43.158;25.302;2023-05-10T12:04:00;4.32;;;3.03;;
29732;SDS011;16643;43.158;25.302;2023-05-10T12:06:27;5.00;;;2.45;;
29732;SDS011;16643;43.158;25.302;2023-05-10T12:08:54;4.60;;;2.83;;
29732;SDS011;16643;43.158;25.302;2023-05-10T12:11:20;3.88;;;2.70;;
29732;SDS011;16643;43.158;25.302;2023-05-10T12:13:50;3.00;;;2.55;;
29732;SDS011;16643;43.158;25.302;2023-05-10T12:16:18;3.42;;;2.28;;
29732;SDS011;16643;43.158;25.302;2023-05-10T12:18:49;2.70;;;1.95;;
29732;SDS011;16643;43.158;25.302;2023-05-10T12:21:16;7.28;;;2.65;;
29732;SDS011;16643;43.158;25.302;2023-05-10T12:23:42;3.97;;;2.55;;
29732;SDS011;16643;43.158;25.302;2023-05-10T12:26:11;4.35;;;2.22;;
29732;SDS011;16643;43.158;25.302;2023-05-10T12:28:37;4.82;;;2.90;;
29732;SDS011;16643;43.158;25.302;2023-05-10T12:31:03;4.20;;;2.72;;
29732;SDS011;16643;43.158;25.302;2023-05-10T12:33:40;4.78;;;2.35;;
29732;SDS011;16643;43.158;25.302;2023-05-10T12:36:12;5.20;;;2.55;;
29732;SDS011;16643;43.158;25.302;2023-05-10T12:38:40;3.25;;;2.30;;
29732;SDS011;16643;43.158;25.302;2023-05-10T12:41:09;4.35;;;1.98;;
29732;SDS011;16643;43.158;25.302;2023-05-10T12:43:36;4.25;;;2.20;;
29732;SDS011;16643;43.158;25.302;2023-05-10T12:46:06;3.95;;;2.30;;
29732;SDS011;16643;43.158;25.302;2023-05-10T12:48:32;3.45;;;2.13;;
29732;SDS011;16643;43.158;25.302;2023-05-10T12:50:59;5.03;;;2.50;;
29732;SDS011;16643;43.158;25.302;2023-05-10T12:53:25;3.88;;;2.72;;
29732;SDS011;16643;43.158;25.302;2023-05-10T12:55:54;2.05;;;1.77;;
29732;SDS011;16643;43.158;25.302;2023-05-10T12:58:20;5.18;;;2.63;;
29732;SDS011;16643;43.158;25.302;2023-05-10T13:00:45;4.47;;;2.28;;
29732;SDS011;16643;43.158;25.302;2023-05-10T13:03:11;3.92;;;2.40;;
29732;SDS011;16643;43.158;25.302;2023-05-10T13:05:37;7.05;;;2.90;;
29732;SDS011;16643;43.158;25.302;2023-05-10T13:08:03;3.70;;;2.20;;
29732;SDS011;16643;43.158;25.302;2023-05-10T13:10:30;3.25;;;2.20;;
29732;SDS011;16643;43.158;25.302;2023-05-10T13:12:56;3.17;;;2.30;;
29732;SDS011;16643;43.158;25.302;2023-05-10T13:15:22;3.67;;;2.50;;
29732;SDS011;16643;43.158;25.302;2023-05-10T13:17:48;5.68;;;2.10;;
29732;SDS011;16643;43.158;25.302;2023-05-10T13:20:14;2.78;;;2.13;;
29732;SDS011;16643;43.158;25.302;2023-05-10T13:22:40;3.47;;;2.47;;
29732;SDS011;16643;43.158;25.302;2023-05-10T13:25:07;3.17;;;2.30;;
29732;SDS011;16643;43.158;25.302;2023-05-10T13:27:33;2.80;;;2.17;;
29732;SDS011;16643;43.158;25.302;2023-05-10T13:29:59;4.32;;;2.05;;
29732;SDS011;16643;43.158;25.302;2023-05-10T13:32:25;3.03;;;2.08;;
29732;SDS011;16643;43.158;25.302;2023-05-10T13:34:51;3.92;;;2.10;;
29732;SDS011;16643;43.158;25.302;2023-05-10T13:37:17;3.22;;;2.20;;
29732;SDS011;16643;43.158;25.302;2023-05-10T13:39:43;4.25;;;2.42;;
29732;SDS011;16643;43.158;25.302;2023-05-10T13:42:08;5.30;;;2.10;;
29732;SDS011;16643;43.158;25.302;2023-05-10T13:44:34;4.13;;;2.65;;
29732;SDS011;16643;43.158;25.302;2023-05-10T13:47:01;1.90;;;1.67;;
29732;SDS011;16643;43.158;25.302;2023-05-10T13:49:26;3.78;;;2.15;;
29732;SDS011;16643;43.158;25.302;2023-05-10T13:51:52;2.90;;;2.33;;
29732;SDS011;16643;43.158;25.302;2023-05-10T13:54:18;3.53;;;2.40;;
29732;SDS011;16643;43.158;25.302;2023-05-10T13:56:45;4.65;;;2.05;;
29732;SDS011;16643;43.158;25.302;2023-05-10T13:59:12;4.43;;;2.47;;
29732;SDS011;16643;43.158;25.302;2023-05-10T14:01:39;2.90;;;1.90;;
29732;SDS011;16643;43.158;25.302;2023-05-10T14:04:08;5.43;;;2.58;;
29732;SDS011;16643;43.158;25.302;2023-05-10T14:06:38;3.95;;;2.70;;
29732;SDS011;16643;43.158;25.302;2023-05-10T14:09:03;5.47;;;3.03;;
29732;SDS011;16643;43.158;25.302;2023-05-10T14:11:29;5.03;;;2.60;;
29732;SDS011;16643;43.158;25.302;2023-05-10T14:13:55;4.40;;;2.60;;
29732;SDS011;16643;43.158;25.302;2023-05-10T14:16:21;4.50;;;2.85;;
29732;SDS011;16643;43.158;25.302;2023-05-10T14:18:46;3.13;;;2.38;;
29732;SDS011;16643;43.158;25.302;2023-05-10T14:21:12;6.40;;;2.85;;
29732;SDS011;16643;43.158;25.302;2023-05-10T14:23:38;6.03;;;3.30;;
29732;SDS011;16643;43.158;25.302;2023-05-10T14:26:04;4.85;;;2.60;;
29732;SDS011;16643;43.158;25.302;2023-05-10T14:28:30;3.03;;;2.40;;
29732;SDS011;16643;43.158;25.302;2023-05-10T14:30:55;4.15;;;2.35;;
29732;SDS011;16643;43.158;25.302;2023-05-10T14:33:21;6.03;;;2.80;;
29732;SDS011;16643;43.158;25.302;2023-05-10T14:35:47;4.63;;;2.53;;
29732;SDS011;16643;43.158;25.302;2023-05-10T14:38:13;3.38;;;2.40;;
29732;SDS011;16643;43.158;25.302;2023-05-10T14:40:39;3.35;;;2.30;;
29732;SDS011;16643;43.158;25.302;2023-05-10T14:43:05;4.82;;;2.10;;
29732;SDS011;16643;43.158;25.302;2023-05-10T14:45:31;5.40;;;2.95;;
29732;SDS011;16643;43.158;25.302;2023-05-10T14:47:57;5.28;;;2.78;;
29732;SDS011;16643;43.158;25.302;2023-05-10T14:50:23;3.05;;;2.30;;
29732;SDS011;16643;43.158;25.302;2023-05-10T14:56:04;4.47;;;2.70;;
29732;SDS011;16643;43.158;25.302;2023-05-10T14:58:29;8.75;;;2.83;;
29732;SDS011;16643;43.158;25.302;2023-05-10T15:00:55;4.68;;;2.42;;
29732;SDS011;16643;43.158;25.302;2023-05-10T15:03:22;7.63;;;3.35;;
29732;SDS011;16643;43.158;25.302;2023-05-10T15:05:48;4.97;;;2.60;;
29732;SDS011;16643;43.158;25.302;2023-05-10T15:08:13;3.38;;;1.98;;
29732;SDS011;16643;43.158;25.302;2023-05-10T15:10:39;4.30;;;2.72;;